Time;durP1;ratioP1;P1;durP2;ratioP2;P2;SDS_P1;SDS_P2;PMS_P1;PMS_P2;Temp;Humidity;BMP_temperature;BMP_pressure;BME280_temperature;BME280_humidity;BME280_pressure;Samples;Min_cycle;Max_cycle;Signal;HPM_P1;HPM_P2
2024/02/26 00:01:25;;;;;;;4.57;4.10;;;;;;;2.89;77.97;97350.09;5024642;28;20045;-86
2024/02/26 00:03:50;;;;;;;5.65;3.75;;;;;;;2.83;77.86;97326.53;5039801;28;20029;-86
2024/02/26 00:06:16;;;;;;;5.45;3.80;;;;;;;2.85;78.03;97333.16;5036398;28;20021;-86
2024/02/26 00:08:41;;;;;;;8.02;4.88;;;;;;;1.35;80.56;97347.38;5011519;28;20060;-87
2024/02/26 00:11:06;;;;;;;6.72;5.18;;;;;;;2.54;80.49;97335.47;5035846;28;20052;-86
2024/02/26 00:13:32;;;;;;;7.13;4.32;;;;;;;2.88;78.50;97353.75;5001989;28;20025;-86
2024/02/26 00:15:57;;;;;;;5.93;4.32;;;;;;;2.68;78.55;97334.16;5041869;28;20473;-85
2024/02/26 00:18:22;;;;;;;4.70;4.25;;;;;;;2.67;78.28;97350.97;5041023;28;20040;-87
2024/02/26 00:20:48;;;;;;;7.32;4.32;;;;;;;2.73;78.88;97350.84;5032658;28;20113;-86
2024/02/26 00:23:15;;;;;;;8.48;4.07;;;;;;;2.66;78.86;97334.41;5037822;28;20087;-87
2024/02/26 00:25:42;;;;;;;5.05;4.10;;;;;;;2.78;78.43;97344.88;5038595;28;20042;-86
2024/02/26 00:28:08;;;;;;;5.20;3.85;;;;;;;2.65;78.51;97306.44;5036091;28;20064;-86
2024/02/26 00:30:33;;;;;;;3.72;3.38;;;;;;;2.77;78.51;97335.38;5014951;28;20026;-87
2024/02/26 00:32:59;;;;;;;6.05;4.35;;;;;;;2.80;78.05;97340.97;5039386;28;20049;-86
2024/02/26 00:35:24;;;;;;;4.22;3.45;;;;;;;2.61;79.06;97307.16;5037102;28;20440;-86
2024/02/26 00:37:49;;;;;;;6.25;3.63;;;;;;;2.58;78.48;97316.31;5040874;28;20044;-86
2024/02/26 00:40:15;;;;;;;4.57;3.80;;;;;;;2.78;78.67;97339.59;5042009;28;20071;-87
2024/02/26 00:42:45;;;;;;;6.90;4.18;;;;;;;2.50;78.42;97303.53;5039011;28;20401;-87
2024/02/26 00:45:11;;;;;;;5.07;3.67;;;;;;;2.80;78.42;97342.81;5039065;28;20112;-86
2024/02/26 00:47:37;;;;;;;3.95;3.50;;;;;;;2.76;78.74;97329.31;5033336;28;20030;-86
2024/02/26 00:50:02;;;;;;;5.65;4.13;;;;;;;2.88;78.34;97339.81;5032438;28;20040;-85
2024/02/26 00:52:28;;;;;;;5.15;4.03;;;;;;;2.90;78.23;97338.53;5035961;28;20040;-86
2024/02/26 00:54:53;;;;;;;4.80;3.90;;;;;;;2.48;78.16;97267.94;5034380;28;20199;-87
2024/02/26 00:57:18;;;;;;;7.45;3.55;;;;;;;2.81;78.43;97318.88;5033076;28;20081;-86
2024/02/26 00:59:44;;;;;;;4.07;3.42;;;;;;;2.99;78.34;97338.94;5034462;28;20041;-86
2024/02/26 01:02:09;;;;;;;9.35;4.28;;;;;;;2.93;77.73;97343.31;5035804;28;20029;-86
2024/02/26 01:04:35;;;;;;;4.18;3.70;;;;;;;2.90;78.32;97349.06;5040512;28;20461;-86
2024/02/26 01:07:00;;;;;;;7.28;3.58;;;;;;;2.68;78.60;97327.06;5018140;28;20036;-86
2024/02/26 01:09:25;;;;;;;4.65;3.85;;;;;;;2.96;77.79;97347.31;5033777;28;20029;-86
2024/02/26 01:11:51;;;;;;;5.78;3.65;;;;;;;2.92;78.15;97340.94;5041142;28;20044;-87
2024/02/26 01:14:16;;;;;;;5.82;3.97;;;;;;;2.94;78.33;97331.75;5036951;28;20029;-86
2024/02/26 01:16:41;;;;;;;4.85;3.20;;;;;;;2.90;78.69;97338.53;5007041;28;20453;-86
2024/02/26 01:19:09;;;;;;;5.72;3.50;;;;;;;2.81;78.08;97339.94;5034780;28;20032;-85
2024/02/26 01:21:35;;;;;;;3.40;2.97;;;;;;;2.58;79.08;97299.75;5037744;28;20426;-85
2024/02/26 01:24:00;;;;;;;5.30;3.17;;;;;;;2.82;78.33;97317.00;5018292;28;20064;-86
2024/02/26 01:26:25;;;;;;;4.70;3.47;;;;;;;2.97;78.36;97330.50;5011936;28;20294;-86
2024/02/26 01:28:51;;;;;;;4.63;3.60;;;;;;;2.35;78.37;97239.25;5028098;28;20049;-87
2024/02/26 01:31:16;;;;;;;3.97;3.58;;;;;;;2.59;78.22;97280.25;5030499;28;20033;-87
2024/02/26 01:33:42;;;;;;;3.80;3.25;;;;;;;2.93;78.16;97324.06;5032179;28;20040;-85
2024/02/26 01:36:07;;;;;;;5.60;3.45;;;;;;;2.92;78.24;97323.28;5034421;28;20037;-87
2024/02/26 01:38:32;;;;;;;3.33;3.03;;;;;;;2.77;78.80;97324.84;5030418;28;20033;-85
2024/02/26 01:40:58;;;;;;;5.80;4.00;;;;;;;1.99;79.54;97319.34;4996239;28;20045;-86
2024/02/26 01:43:23;;;;;;;5.68;4.10;;;;;;;1.56;81.37;97332.88;5032830;28;20037;-86
2024/02/26 01:45:48;;;;;;;3.15;2.92;;;;;;;2.43;80.42;97300.25;5027979;28;20058;-84
2024/02/26 01:48:14;;;;;;;3.65;3.08;;;;;;;2.66;79.60;97315.97;5026135;28;20042;-87
2024/02/26 01:50:40;;;;;;;7.82;3.88;;;;;;;2.87;78.67;97317.91;5016501;28;20037;-85
2024/02/26 01:53:07;;;;;;;4.25;3.40;;;;;;;2.60;78.91;97287.91;5032952;28;20056;-85
2024/02/26 01:55:33;;;;;;;4.80;3.58;;;;;;;2.66;78.87;97284.34;5039207;28;20021;-86
2024/02/26 01:57:59;;;;;;;4.07;3.17;;;;;;;2.22;78.66;97243.78;5005295;28;20038;-86
2024/02/26 02:00:25;;;;;;;4.57;3.22;;;;;;;2.67;79.35;97317.56;5030272;28;20264;-86
2024/02/26 02:02:51;;;;;;;4.78;3.53;;;;;;;2.77;79.10;97325.66;5035190;28;20054;-86
2024/02/26 02:05:19;;;;;;;5.85;3.55;;;;;;;2.70;79.20;97325.00;5014882;28;20102;-87
2024/02/26 02:07:45;;;;;;;3.90;3.30;;;;;;;2.70;79.20;97311.81;5011029;28;20104;-85
2024/02/26 02:10:11;;;;;;;5.82;3.08;;;;;;;2.52;79.98;97290.13;5018367;28;20056;-86
2024/02/26 02:12:39;;;;;;;3.53;2.97;;;;;;;2.62;79.10;97324.56;5018129;28;20068;-86
2024/02/26 02:15:05;;;;;;;4.05;3.47;;;;;;;2.52;80.01;97317.25;5032408;28;20068;-86
2024/02/26 02:17:31;;;;;;;3.40;3.10;;;;;;;2.61;79.50;97307.97;5018289;28;20040;-86
2024/02/26 02:19:57;;;;;;;5.65;4.07;;;;;;;2.70;79.25;97317.09;5034330;28;20026;-86
2024/02/26 02:22:22;;;;;;;4.57;3.40;;;;;;;2.84;78.74;97330.78;5037011;28;20029;-87
2024/02/26 02:24:49;;;;;;;4.50;3.38;;;;;;;2.63;79.28;97287.47;5030365;28;20056;-85
2024/02/26 02:27:14;;;;;;;3.47;2.97;;;;;;;2.46;79.12;97286.63;5034453;28;20029;-86
2024/02/26 02:29:40;;;;;;;4.35;3.40;;;;;;;2.78;78.66;97311.44;5033014;28;20136;-86
2024/02/26 02:32:06;;;;;;;6.50;3.33;;;;;;;2.90;78.59;97320.09;5037371;28;20472;-86
2024/02/26 02:34:32;;;;;;;3.70;2.80;;;;;;;2.79;79.11;97323.59;5033880;28;20060;-86
2024/02/26 02:36:57;;;;;;;3.85;3.15;;;;;;;2.79;79.13;97328.84;5037580;28;20060;-87
2024/02/26 02:39:23;;;;;;;6.55;3.45;;;;;;;2.83;78.81;97319.44;5045099;28;20033;-86
2024/02/26 02:41:48;;;;;;;4.00;3.53;;;;;;;2.77;78.83;97315.13;5035901;28;20035;-85
2024/02/26 02:44:14;;;;;;;4.45;3.00;;;;;;;2.85;78.66;97322.63;5030720;28;20163;-86
2024/02/26 02:46:39;;;;;;;5.20;4.18;;;;;;;1.85;80.48;97308.28;5014381;28;20040;-86
2024/02/26 02:49:11;;;;;;;5.05;3.88;;;;;;;2.58;79.60;97295.25;5036425;28;20037;-86
2024/02/26 02:51:37;;;;;;;5.00;3.38;;;;;;;2.44;80.23;97322.91;5033339;28;20504;-86
2024/02/26 02:54:03;;;;;;;4.07;3.17;;;;;;;2.62;79.19;97312.19;5033273;28;20026;-86
2024/02/26 02:56:28;;;;;;;4.20;3.35;;;;;;;2.69;79.10;97336.56;5037785;28;20065;-86
2024/02/26 02:58:53;;;;;;;4.97;3.22;;;;;;;2.79;79.18;97325.41;5039783;28;20060;-84
2024/02/26 03:01:19;;;;;;;6.47;3.72;;;;;;;2.05;81.98;97321.84;5035552;28;20056;-86
2024/02/26 03:03:44;;;;;;;4.72;3.45;;;;;;;2.53;79.85;97297.81;5027061;28;20033;-86
2024/02/26 03:06:10;;;;;;;3.97;3.13;;;;;;;2.59;79.38;97294.22;5033493;28;20067;-86
2024/02/26 03:08:39;;;;;;;4.88;3.42;;;;;;;2.58;79.44;97283.94;5014984;28;20061;-86
2024/02/26 03:11:05;;;;;;;4.72;3.72;;;;;;;2.15;80.12;97269.44;5016875;28;20032;-85
2024/02/26 03:13:30;;;;;;;4.43;3.00;;;;;;;2.67;79.58;97309.66;5010144;28;20033;-86
2024/02/26 03:15:55;;;;;;;7.20;4.15;;;;;;;2.59;79.32;97311.84;5014720;28;20094;-86
2024/02/26 03:18:21;;;;;;;4.85;3.13;;;;;;;2.55;80.22;97322.06;5014826;28;20035;-87
2024/02/26 03:20:47;;;;;;;4.45;3.30;;;;;;;2.63;80.06;97319.06;5013360;28;20029;-87
2024/02/26 03:23:15;;;;;;;3.40;2.60;;;;;;;2.75;79.72;97326.91;5045688;28;20052;-86
2024/02/26 03:25:46;;;;;;;5.35;3.50;;;;;;;2.65;79.57;97319.63;5035809;28;20029;-87
2024/02/26 03:28:12;;;;;;;3.15;2.88;;;;;;;2.66;80.00;97328.31;5029015;28;20120;-86
2024/02/26 03:30:38;;;;;;;4.43;2.92;;;;;;;2.36;80.08;97280.38;5026540;28;20026;-86
2024/02/26 03:33:03;;;;;;;5.18;2.88;;;;;;;2.50;80.18;97306.16;5015556;28;20025;-86
2024/02/26 03:35:28;;;;;;;4.38;3.13;;;;;;;2.56;80.11;97309.69;5029891;28;20060;-86
2024/02/26 03:37:54;;;;;;;8.02;5.40;;;;;;;2.71;79.82;97342.38;5023167;28;20060;-87
2024/02/26 03:40:19;;;;;;;3.30;2.65;;;;;;;2.52;79.90;97306.72;5031892;28;20115;-86
2024/02/26 03:42:45;;;;;;;2.83;2.50;;;;;;;2.63;80.09;97321.69;5039402;28;20225;-86
2024/02/26 03:45:11;;;;;;;4.63;2.80;;;;;;;2.57;80.35;97330.53;5016736;28;20029;-85
2024/02/26 03:47:37;;;;;;;3.97;2.75;;;;;;;2.58;80.21;97326.84;5028246;28;20059;-87
2024/02/26 03:50:04;;;;;;;3.70;3.33;;;;;;;2.62;79.91;97321.94;5030943;28;20098;-86
2024/02/26 03:52:30;;;;;;;6.38;3.13;;;;;;;2.71;79.77;97329.22;5036176;28;20054;-87
2024/02/26 03:54:55;;;;;;;4.13;2.92;;;;;;;2.21;79.82;97289.56;5032899;28;20080;-87
2024/02/26 03:57:21;;;;;;;5.32;3.00;;;;;;;2.60;81.33;97334.53;5015713;28;20139;-86
2024/02/26 03:59:46;;;;;;;4.13;3.22;;;;;;;2.57;79.68;97298.13;5026191;28;20113;-87
2024/02/26 04:02:11;;;;;;;3.40;2.67;;;;;;;2.67;80.12;97322.81;5030011;28;20439;-87
2024/02/26 04:04:37;;;;;;;6.53;3.40;;;;;;;2.26;80.18;97273.88;5038697;28;20026;-85
2024/02/26 04:07:02;;;;;;;3.80;3.10;;;;;;;1.91;81.96;97311.81;5013540;28;20647;-85
2024/02/26 04:09:27;;;;;;;5.15;3.13;;;;;;;1.58;83.92;97301.88;5036776;28;20029;-86
2024/02/26 04:11:53;;;;;;;4.50;3.28;;;;;;;2.35;82.06;97324.31;5019418;28;20037;-86
2024/02/26 04:14:18;;;;;;;3.95;3.15;;;;;;;2.23;80.58;97261.16;5038484;28;20115;-86
2024/02/26 04:16:43;;;;;;;5.80;3.55;;;;;;;2.73;80.22;97310.56;5019499;28;20040;-86
2024/02/26 04:19:09;;;;;;;4.63;3.80;;;;;;;2.25;81.76;97308.28;5021792;28;20030;-87
2024/02/26 04:21:35;;;;;;;6.28;3.15;;;;;;;2.13;81.41;97268.06;5032391;28;20132;-86
2024/02/26 04:24:01;;;;;;;4.45;2.92;;;;;;;2.79;80.56;97339.38;5019737;28;20033;-86
2024/02/26 04:26:28;;;;;;;4.45;3.13;;;;;;;2.31;79.84;97257.38;5043933;28;20044;-86
2024/02/26 04:28:54;;;;;;;3.42;2.90;;;;;;;2.80;80.61;97335.69;5021091;28;20021;-85
2024/02/26 04:31:19;;;;;;;5.65;3.35;;;;;;;2.85;80.43;97335.81;5037866;28;20068;-86
2024/02/26 04:33:44;;;;;;;6.07;3.45;;;;;;;2.88;80.20;97337.94;5037904;28;20044;-86
2024/02/26 04:36:17;;;;;;;4.55;2.58;;;;;;;2.82;80.36;97327.56;5033664;28;20112;-85
2024/02/26 04:38:44;;;;;;;6.55;3.15;;;;;;;2.92;80.03;97335.66;5037279;28;20033;-86
2024/02/26 04:41:09;;;;;;;4.60;2.67;;;;;;;2.89;79.71;97339.56;5037249;28;20481;-85
2024/02/26 04:43:36;;;;;;;4.25;3.13;;;;;;;2.65;80.50;97305.66;5022076;28;20128;-86
2024/02/26 04:46:01;;;;;;;2.95;2.72;;;;;;;2.87;80.23;97335.56;5035884;28;20097;-86
2024/02/26 04:48:27;;;;;;;7.57;3.55;;;;;;;2.87;80.74;97339.00;5039259;28;20045;-86
2024/02/26 04:50:53;;;;;;;5.28;3.28;;;;;;;2.78;80.13;97321.16;5032844;28;20121;-86
2024/02/26 04:53:18;;;;;;;4.25;3.85;;;;;;;2.69;80.30;97302.31;5042483;28;20097;-86
2024/02/26 04:55:43;;;;;;;4.07;3.25;;;;;;;2.75;80.37;97317.16;5017610;28;20025;-86
2024/02/26 04:58:10;;;;;;;5.47;3.33;;;;;;;2.65;80.18;97301.19;5040785;28;20385;-86
2024/02/26 05:00:35;;;;;;;3.78;3.10;;;;;;;2.94;80.27;97346.75;5019044;28;20064;-86
2024/02/26 05:03:01;;;;;;;6.57;3.45;;;;;;;2.91;80.10;97340.13;5033959;28;20064;-85
2024/02/26 05:05:26;;;;;;;4.25;3.33;;;;;;;2.94;80.29;97331.75;5037365;28;20056;-86
2024/02/26 05:07:52;;;;;;;3.50;3.20;;;;;;;2.99;80.24;97338.94;5017867;28;20061;-87
2024/02/26 05:10:17;;;;;;;5.97;4.13;;;;;;;2.61;81.45;97330.84;5037887;28;20026;-86
2024/02/26 05:12:42;;;;;;;6.10;3.47;;;;;;;2.72;81.07;97295.78;5016681;28;20113;-86
2024/02/26 05:15:09;;;;;;;4.88;3.30;;;;;;;2.71;81.36;97329.22;5014710;28;20599;-86
2024/02/26 05:17:34;;;;;;;5.28;3.50;;;;;;;2.84;80.90;97347.38;5014216;28;20065;-86
2024/02/26 05:20:00;;;;;;;10.10;6.57;;;;;;;1.81;83.49;97304.53;5016091;28;20083;-87
2024/02/26 05:22:25;;;;;;;8.23;5.00;;;;;;;2.28;85.08;97347.31;5032060;28;20046;-87
2024/02/26 05:24:51;;;;;;;6.03;4.07;;;;;;;2.91;82.24;97358.56;5033495;28;20029;-86
2024/02/26 05:27:16;;;;;;;8.85;5.35;;;;;;;2.09;84.99;97357.22;5037167;28;20037;-87
2024/02/26 05:29:42;;;;;;;11.93;6.80;;;;;;;2.11;85.12;97339.34;5046852;28;20084;-86
2024/02/26 05:32:07;;;;;;;17.48;9.00;;;;;;;1.50;87.37;97355.63;5027253;28;20078;-85
2024/02/26 05:34:33;;;;;;;14.30;8.98;;;;;;;1.38;89.89;97332.97;5007308;28;21555;-85
2024/02/26 05:36:58;;;;;;;9.48;5.70;;;;;;;2.47;86.39;97343.50;5006616;28;20029;-86
2024/02/26 05:39:24;;;;;;;9.18;6.15;;;;;;;2.70;83.53;97347.88;5024854;28;20064;-85
2024/02/26 05:41:49;;;;;;;18.27;10.98;;;;;;;2.72;82.91;97372.97;5012469;28;20045;-85
2024/02/26 05:44:15;;;;;;;28.27;13.43;;;;;;;1.42;87.85;97331.50;5023792;28;20072;-85
2024/02/26 05:46:42;;;;;;;10.43;6.78;;;;;;;2.69;83.77;97354.19;5027836;28;20096;-85
2024/02/26 05:49:07;;;;;;;24.10;13.20;;;;;;;1.85;86.95;97367.97;5011894;28;20045;-84
2024/02/26 05:51:33;;;;;;;17.58;9.55;;;;;;;2.10;88.70;97376.41;5027142;28;20048;-84
2024/02/26 05:53:58;;;;;;;27.05;15.02;;;;;;;2.00;87.65;97377.00;5025719;28;20029;-87
2024/02/26 05:56:24;;;;;;;25.98;15.38;;;;;;;1.53;90.56;97375.38;5030081;28;20032;-87
2024/02/26 05:58:50;;;;;;;21.55;12.25;;;;;;;1.78;91.41;97383.88;5010351;28;20037;-87
2024/02/26 06:01:17;;;;;;;15.90;9.25;;;;;;;2.02;88.54;97330.22;5024415;28;20044;-87
2024/02/26 06:03:42;;;;;;;32.03;16.95;;;;;;;2.11;88.04;97388.56;5001027;28;20033;-87
2024/02/26 06:06:08;;;;;;;20.67;11.93;;;;;;;2.08;90.05;97389.00;5032747;28;20029;-87
2024/02/26 06:08:36;;;;;;;19.90;10.73;;;;;;;2.86;85.13;97387.44;4994301;28;20733;-87
2024/02/26 06:11:06;;;;;;;32.67;18.73;;;;;;;1.59;88.48;97348.19;4997959;28;20035;-86
2024/02/26 06:13:32;;;;;;;33.47;19.40;;;;;;;1.59;91.60;97387.63;5015822;28;20033;-88
2024/02/26 06:15:58;;;;;;;30.08;17.05;;;;;;;0.90;93.40;97298.97;4994564;28;20044;-87
2024/02/26 06:18:23;;;;;;;30.23;17.83;;;;;;;1.57;94.34;97397.59;5024774;28;20036;-86
2024/02/26 06:20:52;;;;;;;29.75;16.10;;;;;;;1.43;93.32;97341.78;5025015;28;20057;-87
2024/02/26 06:23:17;;;;;;;33.90;18.30;;;;;;;1.52;93.98;97384.31;5009074;28;20505;-86
2024/02/26 06:25:43;;;;;;;34.30;18.23;;;;;;;1.39;93.91;97359.03;4996730;28;20033;-86
2024/02/26 06:28:08;;;;;;;32.72;18.50;;;;;;;1.43;93.78;97343.59;5032824;28;20123;-88
2024/02/26 06:30:34;;;;;;;25.45;14.55;;;;;;;2.06;90.86;97354.22;5028282;28;20144;-87
2024/02/26 06:33:02;;;;;;;28.10;16.85;;;;;;;2.15;90.20;97394.94;5031401;28;20026;-86
2024/02/26 06:35:28;;;;;;;26.15;13.40;;;;;;;3.11;85.04;97400.28;5014399;28;20071;-86
2024/02/26 06:37:53;;;;;;;33.30;17.38;;;;;;;2.18;87.36;97386.59;5032358;28;20045;-87
2024/02/26 06:40:19;;;;;;;28.63;17.38;;;;;;;1.78;91.00;97401.47;5031387;28;20052;-87
2024/02/26 06:42:45;;;;;;;32.17;18.17;;;;;;;1.65;93.34;97401.69;5030200;28;20037;-88
2024/02/26 06:45:10;;;;;;;26.63;15.02;;;;;;;2.32;89.81;97345.81;5031857;28;20033;-86
2024/02/26 06:47:36;;;;;;;32.67;17.10;;;;;;;2.38;87.07;97354.63;5031905;28;20049;-86
2024/02/26 06:50:01;;;;;;;39.47;22.55;;;;;;;1.94;90.74;97411.31;5031447;28;20029;-86
2024/02/26 06:52:27;;;;;;;27.80;16.98;;;;;;;2.23;92.03;97413.00;5030969;28;20076;-86
2024/02/26 06:54:52;;;;;;;31.70;16.52;;;;;;;2.81;87.89;97399.72;5011928;28;20051;-86
2024/02/26 06:57:19;;;;;;;29.08;17.10;;;;;;;2.56;86.05;97372.88;5012282;28;20030;-87
2024/02/26 06:59:46;;;;;;;27.95;15.20;;;;;;;3.08;84.92;97400.75;5002275;28;20029;-88
2024/02/26 07:02:13;;;;;;;36.03;19.77;;;;;;;2.53;87.31;97424.22;5032697;28;20485;-87
2024/02/26 07:04:38;;;;;;;29.75;16.50;;;;;;;2.99;86.43;97404.84;5035639;28;20034;-86
2024/02/26 07:07:04;;;;;;;30.33;17.02;;;;;;;2.54;87.59;97394.19;5037164;28;20094;-88
2024/02/26 07:09:29;;;;;;;33.50;17.90;;;;;;;2.94;87.22;97420.53;5014704;28;20034;-88
2024/02/26 07:11:55;;;;;;;28.80;16.13;;;;;;;3.02;86.57;97428.88;5029109;28;20101;-87
2024/02/26 07:14:20;;;;;;;29.70;17.95;;;;;;;2.89;87.44;97418.59;5018207;28;20030;-87
2024/02/26 07:16:46;;;;;;;33.05;17.88;;;;;;;2.65;88.02;97422.34;5044555;28;20580;-88
2024/02/26 07:19:11;;;;;;;27.67;16.73;;;;;;;2.77;87.53;97391.50;5033538;28;20029;-88
2024/02/26 07:21:36;;;;;;;33.10;18.35;;;;;;;2.65;87.05;97403.09;5037015;28;20037;-88
2024/02/26 07:24:02;;;;;;;24.13;15.00;;;;;;;3.07;88.01;97456.34;5035807;28;20037;-88
2024/02/26 07:26:29;;;;;;;28.48;15.38;;;;;;;3.25;86.21;97441.16;5037182;28;20033;-88
2024/02/26 07:28:55;;;;;;;28.05;15.65;;;;;;;3.50;84.42;97441.59;5035501;28;20037;-87
2024/02/26 07:31:20;;;;;;;25.92;14.73;;;;;;;3.39;85.01;97429.28;5018734;28;20037;-88
2024/02/26 07:33:46;;;;;;;28.27;14.82;;;;;;;2.95;86.90;97425.56;5026533;28;20029;-87
2024/02/26 07:36:11;;;;;;;27.00;15.25;;;;;;;3.23;85.99;97445.06;4996580;28;20056;-88
2024/02/26 07:38:37;;;;;;;22.98;14.23;;;;;;;3.01;87.18;97418.56;5039432;28;20037;-88
2024/02/26 07:41:03;;;;;;;24.50;15.23;;;;;;;3.20;87.06;97408.63;5039645;28;20053;-87
2024/02/26 07:43:28;;;;;;;23.77;14.02;;;;;;;3.64;85.66;97448.19;5034764;28;20433;-87
2024/02/26 07:45:54;;;;;;;25.85;14.82;;;;;;;3.34;85.99;97425.75;5040379;28;20045;-88
2024/02/26 07:48:19;;;;;;;25.98;14.32;;;;;;;3.30;86.74;97430.69;5041995;28;20017;-86
2024/02/26 07:50:45;;;;;;;23.08;15.18;;;;;;;3.12;89.17;97445.91;5038755;28;20196;-87
2024/02/26 07:53:10;;;;;;;21.00;12.70;;;;;;;2.62;89.98;97396.47;5038397;28;20029;-87
2024/02/26 07:55:35;;;;;;;19.38;13.07;;;;;;;3.38;86.74;97411.06;5025954;28;20091;-87
2024/02/26 07:58:01;;;;;;;22.25;12.52;;;;;;;3.40;87.29;97438.78;5035774;28;20040;-87
2024/02/26 08:00:26;;;;;;;23.13;13.50;;;;;;;3.89;85.60;97428.53;5039330;28;20029;-87
2024/02/26 08:02:51;;;;;;;17.70;10.95;;;;;;;2.67;87.25;97366.78;5040282;28;20128;-87
2024/02/26 08:05:17;;;;;;;17.05;9.48;;;;;;;3.29;86.27;97444.13;5056193;28;20056;-87
2024/02/26 08:07:43;;;;;;;21.33;11.85;;;;;;;3.86;84.89;97439.56;5059071;28;20029;-87
2024/02/26 08:10:08;;;;;;;16.35;10.00;;;;;;;3.65;85.02;97448.97;5040994;28;20037;-87
2024/02/26 08:12:34;;;;;;;13.95;9.02;;;;;;;3.32;84.60;97449.72;5032387;28;20053;-87
2024/02/26 08:15:00;;;;;;;16.38;10.20;;;;;;;3.74;85.39;97458.09;5033363;28;20859;-86
2024/02/26 08:17:25;;;;;;;14.88;8.68;;;;;;;3.48;86.53;97456.88;5039491;28;20029;-87
2024/02/26 08:19:51;;;;;;;15.68;9.48;;;;;;;3.67;85.06;97423.94;5022911;28;20124;-87
2024/02/26 08:22:17;;;;;;;14.35;9.77;;;;;;;3.22;85.08;97412.63;5022486;28;20067;-86
2024/02/26 08:24:43;;;;;;;19.75;10.70;;;;;;;3.63;85.49;97438.66;5017906;28;20049;-87
2024/02/26 08:27:08;;;;;;;14.93;9.23;;;;;;;3.85;85.10;97475.69;5038091;28;20036;-88
2024/02/26 08:29:34;;;;;;;14.32;8.98;;;;;;;3.95;85.14;97467.97;5041983;28;20030;-87
2024/02/26 08:31:59;;;;;;;14.88;8.52;;;;;;;3.86;84.91;97448.28;5041281;28;20026;-87
2024/02/26 08:34:25;;;;;;;14.77;9.55;;;;;;;4.29;82.87;97440.47;5042256;28;20037;-87
2024/02/26 08:36:51;;;;;;;14.07;9.57;;;;;;;4.25;82.63;97447.28;5044426;28;20076;-88
2024/02/26 08:39:17;;;;;;;15.32;9.70;;;;;;;4.02;83.59;97428.19;5038359;28;20044;-88
2024/02/26 08:41:45;;;;;;;14.40;9.88;;;;;;;4.18;84.50;97470.41;5038687;28;20021;-87
2024/02/26 08:44:11;;;;;;;13.95;9.07;;;;;;;4.39;83.23;97477.59;5038697;28;20040;-87
2024/02/26 08:46:37;;;;;;;16.85;9.55;;;;;;;4.74;81.96;97479.91;5046766;28;20081;-87
2024/02/26 08:49:03;;;;;;;17.38;10.05;;;;;;;4.44;84.22;97475.03;5039178;28;20045;-88
2024/02/26 08:51:28;;;;;;;14.00;9.52;;;;;;;4.24;84.84;97434.31;5039429;28;20112;-87
2024/02/26 08:53:54;;;;;;;14.40;8.57;;;;;;;4.53;84.39;97486.78;5037239;28;20017;-86
2024/02/26 08:56:21;;;;;;;15.25;10.52;;;;;;;4.44;83.67;97451.25;5040786;28;20029;-86
2024/02/26 08:58:48;;;;;;;14.50;10.13;;;;;;;4.31;83.33;97466.63;5038615;28;20049;-87
2024/02/26 09:01:17;;;;;;;14.38;9.77;;;;;;;4.41;85.01;97470.22;5038838;28;20033;-87
2024/02/26 09:03:43;;;;;;;17.90;9.85;;;;;;;4.39;84.65;97459.09;5022268;28;20516;-88
2024/02/26 09:06:08;;;;;;;16.48;9.68;;;;;;;4.23;83.93;97446.75;5030231;28;20033;-88
2024/02/26 09:08:35;;;;;;;14.10;8.93;;;;;;;4.37;82.85;97471.75;5020777;28;20037;-86
2024/02/26 09:11:01;;;;;;;14.85;9.52;;;;;;;4.45;82.54;97476.63;5038284;28;20392;-87
2024/02/26 09:13:26;;;;;;;14.77;11.02;;;;;;;4.37;83.07;97447.16;5044360;28;20109;-87
2024/02/26 09:15:52;;;;;;;19.73;10.30;;;;;;;4.56;81.90;97475.72;5062849;28;20025;-87
2024/02/26 09:18:17;;;;;;;12.32;8.13;;;;;;;4.77;82.44;97476.78;5041428;28;20021;-88
2024/02/26 09:20:43;;;;;;;19.83;11.73;;;;;;;4.76;82.28;97466.47;5024075;28;20036;-87
2024/02/26 09:23:09;;;;;;;22.27;11.73;;;;;;;4.86;80.84;97485.09;5023463;28;20424;-88
2024/02/26 09:25:35;;;;;;;21.58;11.80;;;;;;;4.35;82.48;97404.38;5037807;28;20025;-88
2024/02/26 09:28:01;;;;;;;16.88;9.95;;;;;;;4.98;82.65;97469.94;5038500;28;20113;-88
2024/02/26 09:30:26;;;;;;;15.32;10.75;;;;;;;5.25;82.58;97491.91;5038571;28;20036;-87
2024/02/26 09:32:51;;;;;;;15.35;11.43;;;;;;;5.12;81.87;97471.94;5050414;28;20029;-87
2024/02/26 09:35:17;;;;;;;22.63;13.75;;;;;;;5.32;81.67;97498.63;5021419;28;20029;-88
2024/02/26 09:37:44;;;;;;;20.33;11.80;;;;;;;4.92;81.72;97425.94;5051501;28;20047;-88
2024/02/26 09:40:13;;;;;;;26.02;13.95;;;;;;;5.28;80.91;97465.78;5037731;28;20033;-88
2024/02/26 09:42:45;;;;;;;19.25;12.50;;;;;;;5.39;81.73;97453.47;5052098;28;20584;-85
2024/02/26 09:45:22;;;;;;;16.00;10.70;;;;;;;5.48;80.65;97467.84;5053474;28;20033;-87
2024/02/26 09:47:49;;;;;;;20.30;13.05;;;;;;;5.75;80.74;97492.44;5052048;28;20029;-87
2024/02/26 09:50:22;;;;;;;20.35;13.00;;;;;;;5.77;80.24;97500.13;5039060;28;20021;-87
2024/02/26 09:52:49;;;;;;;22.05;13.88;;;;;;;5.72;81.68;97490.28;5038100;28;20672;-87
2024/02/26 09:55:14;;;;;;;13.95;10.40;;;;;;;5.90;80.77;97505.03;5028689;28;20119;-87
2024/02/26 09:57:45;;;;;;;22.88;14.20;;;;;;;5.72;80.44;97492.94;5059226;28;20563;-87
2024/02/26 10:00:16;;;;;;;24.67;15.05;;;;;;;5.77;80.07;97503.59;5071787;28;20096;-87
2024/02/26 10:02:42;;;;;;;21.80;13.65;;;;;;;5.88;79.93;97502.66;5003831;28;20078;-87
2024/02/26 10:05:12;;;;;;;23.90;14.50;;;;;;;5.77;79.73;97479.75;5052214;28;20033;-86
2024/02/26 10:07:38;;;;;;;17.85;12.50;;;;;;;5.97;80.81;97495.84;5028828;28;20033;-87
2024/02/26 10:10:04;;;;;;;18.38;12.25;;;;;;;5.99;80.15;97477.06;5043227;28;20028;-86
2024/02/26 10:12:31;;;;;;;19.67;12.55;;;;;;;5.85;80.47;97470.59;5032553;28;20386;-87
2024/02/26 10:14:56;;;;;;;25.33;15.65;;;;;;;6.02;80.04;97506.50;5030978;28;20025;-86
2024/02/26 10:17:22;;;;;;;20.33;14.23;;;;;;;6.07;80.83;97502.28;5016778;28;20034;-86
2024/02/26 10:19:47;;;;;;;16.55;10.55;;;;;;;6.06;80.98;97464.41;5034583;28;20037;-87
2024/02/26 10:22:13;;;;;;;18.42;13.00;;;;;;;6.05;80.32;97482.16;5018379;28;20416;-87
2024/02/26 10:24:38;;;;;;;17.27;11.85;;;;;;;6.02;80.20;97472.06;5035459;28;20037;-87
2024/02/26 10:27:04;;;;;;;24.13;13.55;;;;;;;6.19;80.57;97497.63;5016368;28;20030;-88
2024/02/26 10:29:31;;;;;;;22.80;13.05;;;;;;;5.94;80.04;97463.81;5035129;28;20049;-86
2024/02/26 10:31:56;;;;;;;20.02;13.52;;;;;;;6.09;80.10;97498.34;5036694;28;20025;-87
2024/02/26 10:34:22;;;;;;;20.48;14.13;;;;;;;6.31;80.38;97522.09;5031346;28;20041;-87
2024/02/26 10:36:47;;;;;;;18.13;12.07;;;;;;;6.46;79.47;97519.56;5047566;28;20033;-87
2024/02/26 10:39:13;;;;;;;25.10;13.88;;;;;;;6.36;80.21;97525.56;5037479;28;20037;-87
2024/02/26 10:41:43;;;;;;;20.25;12.57;;;;;;;6.19;80.02;97497.63;5052932;28;20120;-87
2024/02/26 10:44:12;;;;;;;20.15;13.23;;;;;;;6.21;80.33;97496.31;5017717;28;20033;-86
2024/02/26 10:46:41;;;;;;;18.80;12.77;;;;;;;6.24;79.31;97526.81;5034574;28;20025;-86
2024/02/26 10:49:15;;;;;;;24.80;13.77;;;;;;;6.13;78.73;97514.53;5031442;28;20028;-87
2024/02/26 10:51:44;;;;;;;19.17;12.10;;;;;;;6.31;78.71;97532.69;5035399;28;20080;-87
2024/02/26 10:54:15;;;;;;;19.92;12.35;;;;;;;6.17;78.91;97523.56;5051970;28;20388;-87
2024/02/26 10:56:43;;;;;;;20.15;13.32;;;;;;;6.19;78.88;97521.44;5018956;28;20034;-87
2024/02/26 10:59:10;;;;;;;23.05;12.48;;;;;;;6.22;77.69;97537.66;5019291;28;20038;-87
2024/02/26 11:01:38;;;;;;;19.42;11.77;;;;;;;6.19;78.44;97535.50;5049858;28;20598;-87
2024/02/26 11:04:04;;;;;;;20.65;12.63;;;;;;;6.02;77.71;97517.09;5052202;28;20132;-86
2024/02/26 11:06:30;;;;;;;15.40;11.50;;;;;;;6.01;77.78;97499.59;5032976;28;20093;-87
2024/02/26 11:08:58;;;;;;;23.42;12.25;;;;;;;6.38;78.62;97535.91;5038702;28;20048;-87
2024/02/26 11:11:24;;;;;;;20.83;13.77;;;;;;;6.41;77.43;97536.22;5038835;28;20033;-87
2024/02/26 11:13:52;;;;;;;20.30;12.05;;;;;;;5.96;77.02;97482.88;5056839;28;20040;-87
2024/02/26 11:16:19;;;;;;;19.05;12.18;;;;;;;6.23;77.48;97518.06;5039478;28;20075;-86
2024/02/26 11:18:49;;;;;;;20.38;12.13;;;;;;;6.35;77.85;97544.38;5023286;28;20025;-87
2024/02/26 11:21:27;;;;;;;15.65;11.32;;;;;;;6.58;78.43;97538.72;5023021;28;20034;-86
2024/02/26 11:23:53;;;;;;;21.38;12.55;;;;;;;6.23;77.73;97470.38;5054872;28;20045;-86
2024/02/26 11:26:21;;;;;;;19.15;11.95;;;;;;;6.74;76.50;97543.06;5037795;28;20026;-86
2024/02/26 11:28:52;;;;;;;17.83;11.93;;;;;;;6.68;76.32;97523.66;5040074;28;20571;-86